createdAt,value
2018-08-14T00:00:47.269Z,1003.25
2018-08-14T00:01:47.257Z,1003.21
2018-08-14T00:02:47.246Z,1003.24
2018-08-14T00:03:47.232Z,1003.27
2018-08-14T00:04:47.221Z,1003.26
2018-08-14T00:05:47.208Z,1003.33
2018-08-14T00:06:47.200Z,1003.33
2018-08-14T00:07:47.186Z,1003.32
2018-08-14T00:08:47.171Z,1003.31
2018-08-14T00:09:47.157Z,1003.33
2018-08-14T00:10:47.145Z,1003.34
2018-08-14T00:11:47.133Z,1003.30
2018-08-14T00:12:47.127Z,1003.29
2018-08-14T00:13:47.107Z,1003.32
2018-08-14T00:14:47.095Z,1003.28
2018-08-14T00:15:47.084Z,1003.32
2018-08-14T00:16:47.072Z,1003.35
2018-08-14T00:17:47.058Z,1003.37
2018-08-14T00:18:47.049Z,1003.39
2018-08-14T00:19:47.046Z,1003.35
2018-08-14T00:20:47.023Z,1003.39
2018-08-14T00:21:47.007Z,1003.35
2018-08-14T00:22:46.995Z,1003.37
2018-08-14T00:23:46.993Z,1003.38
2018-08-14T00:24:46.972Z,1003.37
2018-08-14T00:25:46.962Z,1003.38
2018-08-14T00:26:46.947Z,1003.38
2018-08-14T00:27:46.934Z,1003.31
2018-08-14T00:28:46.922Z,1003.32
2018-08-14T00:29:46.909Z,1003.29
2018-08-14T00:30:46.897Z,1003.31
2018-08-14T00:31:46.884Z,1003.32
2018-08-14T00:32:46.872Z,1003.30
2018-08-14T00:33:46.863Z,1003.27
2018-08-14T00:34:46.848Z,1003.28
2018-08-14T00:35:46.835Z,1003.26
2018-08-14T00:36:46.823Z,1003.31
2018-08-14T00:37:46.808Z,1003.32
2018-08-14T00:38:46.795Z,1003.39
2018-08-14T00:39:46.787Z,1003.38
2018-08-14T00:40:46.773Z,1003.37
2018-08-14T00:41:46.758Z,1003.41
2018-08-14T00:42:46.746Z,1003.46
2018-08-14T00:43:46.735Z,1003.49
2018-08-14T00:44:46.728Z,1003.49
2018-08-14T00:45:46.709Z,1003.45
2018-08-14T00:46:46.699Z,1003.41
2018-08-14T00:47:46.689Z,1003.45
2018-08-14T00:48:46.677Z,1003.44
2018-08-14T00:49:46.659Z,1003.45
2018-08-14T00:50:46.647Z,1003.49
2018-08-14T00:51:46.637Z,1003.45
2018-08-14T00:52:46.622Z,1003.54
2018-08-14T00:53:46.614Z,1003.47
2018-08-14T00:54:46.599Z,1003.47
2018-08-14T00:55:46.586Z,1003.48
2018-08-14T00:56:46.573Z,1003.52
2018-08-14T00:57:46.560Z,1003.49
2018-08-14T00:58:46.546Z,1003.50
2018-08-14T00:59:46.533Z,1003.48
2018-08-14T01:00:46.522Z,1003.46
2018-08-14T01:01:46.509Z,1003.46
2018-08-14T01:02:46.500Z,1003.47
2018-08-14T01:03:46.484Z,1003.48
2018-08-14T01:04:46.472Z,1003.47
2018-08-14T01:05:46.457Z,1003.45
2018-08-14T01:06:46.449Z,1003.47
2018-08-14T01:07:46.434Z,1003.47
2018-08-14T01:08:46.421Z,1003.50
2018-08-14T01:09:46.410Z,1003.48
2018-08-14T01:10:46.400Z,1003.50
2018-08-14T01:11:46.384Z,1003.50
2018-08-14T01:12:46.374Z,1003.49
2018-08-14T01:13:46.360Z,1003.49
2018-08-14T01:14:46.344Z,1003.49
2018-08-14T01:15:46.333Z,1003.51
2018-08-14T01:16:46.321Z,1003.49
2018-08-14T01:17:46.307Z,1003.49
2018-08-14T01:18:46.309Z,1003.47
2018-08-14T01:19:46.285Z,1003.47
2018-08-14T01:20:46.274Z,1003.47
2018-08-14T01:21:46.257Z,1003.48
2018-08-14T01:22:46.245Z,1003.44
2018-08-14T01:23:46.232Z,1003.44
2018-08-14T01:24:46.221Z,1003.46
2018-08-14T01:25:46.206Z,1003.47
2018-08-14T01:26:46.195Z,1003.44
2018-08-14T01:27:46.186Z,1003.48
2018-08-14T01:28:46.170Z,1003.48
2018-08-14T01:29:46.157Z,1003.48
2018-08-14T01:30:46.145Z,1003.52
2018-08-14T01:31:46.131Z,1003.49
2018-08-14T01:32:46.123Z,1003.50
2018-08-14T01:33:46.109Z,1003.48
2018-08-14T01:34:46.093Z,1003.50
2018-08-14T01:35:46.083Z,1003.50
2018-08-14T01:36:46.069Z,1003.48
2018-08-14T01:37:46.056Z,1003.52
2018-08-14T01:38:46.047Z,1003.53
2018-08-14T01:39:46.032Z,1003.56
2018-08-14T01:40:46.018Z,1003.51
2018-08-14T01:41:46.013Z,1003.53
2018-08-14T01:42:45.995Z,1003.52
2018-08-14T01:43:45.981Z,1003.51
2018-08-14T01:44:45.968Z,1003.52
2018-08-14T01:45:45.953Z,1003.50
2018-08-14T01:46:45.942Z,1003.56
2018-08-14T01:47:45.932Z,1003.56
2018-08-14T01:48:45.918Z,1003.57
2018-08-14T01:49:45.908Z,1003.58
2018-08-14T01:50:45.895Z,1003.59
2018-08-14T01:51:45.878Z,1003.61
2018-08-14T01:52:45.867Z,1003.60
2018-08-14T01:53:45.856Z,1003.61
2018-08-14T01:54:45.843Z,1003.60
2018-08-14T01:55:45.830Z,1003.64
2018-08-14T01:56:45.815Z,1003.65
2018-08-14T01:57:45.807Z,1003.66
2018-08-14T01:58:45.792Z,1003.63
2018-08-14T01:59:45.776Z,1003.66
2018-08-14T02:00:45.765Z,1003.65
2018-08-14T02:01:45.752Z,1003.71
2018-08-14T02:02:45.738Z,1003.71
2018-08-14T02:03:45.726Z,1003.66
2018-08-14T02:04:45.715Z,1003.70
2018-08-14T02:05:45.701Z,1003.65
2018-08-14T02:06:45.695Z,1003.66
2018-08-14T02:07:45.677Z,1003.65
2018-08-14T02:08:45.663Z,1003.67
2018-08-14T02:09:45.652Z,1003.67
2018-08-14T02:10:45.660Z,1003.69
2018-08-14T02:11:45.627Z,1003.64
2018-08-14T02:12:45.614Z,1003.64
2018-08-14T02:13:45.600Z,1003.66
2018-08-14T02:14:45.587Z,1003.66
2018-08-14T02:15:45.575Z,1003.68
2018-08-14T02:16:45.562Z,1003.67
2018-08-14T02:17:45.549Z,1003.68
2018-08-14T02:18:45.537Z,1003.68
2018-08-14T02:19:45.524Z,1003.69
2018-08-14T02:20:45.513Z,1003.71
2018-08-14T02:21:45.498Z,1003.72
2018-08-14T02:22:45.485Z,1003.74
2018-08-14T02:23:45.475Z,1003.74
2018-08-14T02:24:45.460Z,1003.71
2018-08-14T02:25:45.449Z,1003.71
2018-08-14T02:26:45.435Z,1003.74
2018-08-14T02:27:45.421Z,1003.77
2018-08-14T02:28:45.409Z,1003.76
2018-08-14T02:29:45.396Z,1003.74
2018-08-14T02:30:45.389Z,1003.76
2018-08-14T02:31:45.372Z,1003.81
2018-08-14T02:32:45.359Z,1003.81
2018-08-14T02:33:45.347Z,1003.80
2018-08-14T02:34:45.332Z,1003.86
2018-08-14T02:35:45.320Z,1003.85
2018-08-14T02:36:45.307Z,1003.86
2018-08-14T02:37:45.294Z,1003.87
2018-08-14T02:38:45.282Z,1003.83
2018-08-14T02:39:45.269Z,1003.83
2018-08-14T02:40:45.255Z,1003.82
2018-08-14T02:41:45.242Z,1003.79
2018-08-14T02:42:45.234Z,1003.81
2018-08-14T02:43:45.216Z,1003.83
2018-08-14T02:44:45.206Z,1003.79
2018-08-14T02:45:45.189Z,1003.79
2018-08-14T02:46:45.179Z,1003.89
2018-08-14T02:47:45.166Z,1003.91
2018-08-14T02:48:45.152Z,1003.91
2018-08-14T02:49:45.140Z,1003.93
2018-08-14T02:50:45.180Z,1003.92
2018-08-14T02:51:45.114Z,1003.95
2018-08-14T02:52:45.102Z,1003.96
2018-08-14T02:53:45.088Z,1003.95
2018-08-14T02:54:45.075Z,1004.02
2018-08-14T02:55:45.063Z,1004.00
2018-08-14T02:56:45.049Z,1004.01
2018-08-14T02:57:45.040Z,1003.99
2018-08-14T02:58:45.031Z,1004.00
2018-08-14T02:59:45.010Z,1004.01
2018-08-14T03:00:45.003Z,1004.00
2018-08-14T03:01:44.984Z,1004.00
2018-08-14T03:02:47.600Z,1004.01
2018-08-14T03:03:45.970Z,1004.06
2018-08-14T03:04:44.946Z,1004.06
2018-08-14T03:05:44.932Z,1004.04
2018-08-14T03:06:44.920Z,1003.99
2018-08-14T03:07:44.907Z,1004.05
2018-08-14T03:08:44.895Z,1004.03
2018-08-14T03:09:44.881Z,1004.00
2018-08-14T03:10:44.868Z,1004.01
2018-08-14T03:11:44.853Z,1004.00
2018-08-14T03:12:44.841Z,1003.97
2018-08-14T03:13:44.827Z,1003.95
2018-08-14T03:14:44.813Z,1003.94
2018-08-14T03:15:44.800Z,1003.96
2018-08-14T03:16:44.789Z,1003.93
2018-08-14T03:17:44.774Z,1003.95
2018-08-14T03:18:44.766Z,1003.96
2018-08-14T03:19:44.825Z,1003.96
2018-08-14T03:20:44.737Z,1003.97
2018-08-14T03:21:44.721Z,1003.99
2018-08-14T03:22:44.707Z,1004.00
2018-08-14T03:23:44.745Z,1004.01
2018-08-14T03:24:44.683Z,1004.07
2018-08-14T03:25:44.671Z,1004.12
2018-08-14T03:26:44.661Z,1004.14
2018-08-14T03:27:44.645Z,1004.11
2018-08-14T03:28:44.633Z,1004.13
2018-08-14T03:29:44.614Z,1004.16
2018-08-14T03:30:44.603Z,1004.21
2018-08-14T03:31:44.591Z,1004.20
2018-08-14T03:32:44.579Z,1004.19
2018-08-14T03:33:44.564Z,1004.19
2018-08-14T03:34:44.549Z,1004.22
2018-08-14T03:35:44.537Z,1004.19
2018-08-14T03:36:44.524Z,1004.24
2018-08-14T03:37:44.511Z,1004.23
2018-08-14T03:38:44.496Z,1004.23
2018-08-14T03:39:44.485Z,1004.18
2018-08-14T03:40:44.472Z,1004.20
2018-08-14T03:41:44.456Z,1004.21
2018-08-14T03:42:44.442Z,1004.20
2018-08-14T03:43:44.431Z,1004.19
2018-08-14T03:44:44.421Z,1004.19
2018-08-14T03:45:44.404Z,1004.20
2018-08-14T03:46:44.390Z,1004.17
2018-08-14T03:47:44.378Z,1004.17
2018-08-14T03:48:44.366Z,1004.18
2018-08-14T03:49:44.349Z,1004.22
2018-08-14T03:50:44.337Z,1004.20
2018-08-14T03:51:44.325Z,1004.23
2018-08-14T03:52:44.313Z,1004.22
2018-08-14T03:53:44.299Z,1004.26
2018-08-14T03:54:44.289Z,1004.27
2018-08-14T03:55:44.270Z,1004.27
2018-08-14T03:56:44.257Z,1004.29
2018-08-14T03:57:44.242Z,1004.32
2018-08-14T03:58:44.232Z,1004.30
2018-08-14T03:59:44.219Z,1004.32
2018-08-14T04:00:44.209Z,1004.33
2018-08-14T04:01:44.193Z,1004.33
2018-08-14T04:02:44.179Z,1004.40
2018-08-14T04:03:44.168Z,1004.40
2018-08-14T04:04:44.150Z,1004.37
2018-08-14T04:05:44.139Z,1004.42
2018-08-14T04:06:44.128Z,1004.42
2018-08-14T04:07:44.152Z,1004.39
2018-08-14T04:08:44.098Z,1004.41
2018-08-14T04:09:44.085Z,1004.40
2018-08-14T04:10:44.070Z,1004.37
2018-08-14T04:11:44.060Z,1004.39
2018-08-14T04:12:44.045Z,1004.41
2018-08-14T04:13:44.029Z,1004.42
2018-08-14T04:14:44.020Z,1004.41
2018-08-14T04:15:44.005Z,1004.43
2018-08-14T04:16:43.991Z,1004.47
2018-08-14T04:17:43.979Z,1004.45
2018-08-14T04:18:43.967Z,1004.46
2018-08-14T04:19:43.949Z,1004.46
2018-08-14T04:20:43.942Z,1004.47
2018-08-14T04:21:43.926Z,1004.47
2018-08-14T04:22:43.912Z,1004.45
2018-08-14T04:23:43.929Z,1004.43
2018-08-14T04:24:43.884Z,1004.46
2018-08-14T04:25:43.871Z,1004.43
2018-08-14T04:26:43.924Z,1004.45
2018-08-14T04:27:43.842Z,1004.47
2018-08-14T04:28:43.830Z,1004.49
2018-08-14T04:29:43.814Z,1004.54
2018-08-14T04:30:43.804Z,1004.57
2018-08-14T04:31:43.789Z,1004.58
2018-08-14T04:32:43.775Z,1004.59
2018-08-14T04:33:43.760Z,1004.61
2018-08-14T04:34:43.746Z,1004.60
2018-08-14T04:35:43.734Z,1004.60
2018-08-14T04:36:43.720Z,1004.62
2018-08-14T04:37:43.707Z,1004.63
2018-08-14T04:38:43.693Z,1004.64
2018-08-14T04:39:43.680Z,1004.71
2018-08-14T04:40:43.667Z,1004.70
2018-08-14T04:41:43.653Z,1004.72
2018-08-14T04:42:43.643Z,1004.73
2018-08-14T04:43:43.627Z,1004.76
2018-08-14T04:44:43.615Z,1004.78
2018-08-14T04:45:43.645Z,1004.78
2018-08-14T04:46:43.587Z,1004.81
2018-08-14T04:47:43.573Z,1004.83
2018-08-14T04:48:43.559Z,1004.84
2018-08-14T04:49:43.557Z,1004.78
2018-08-14T04:50:43.533Z,1004.75
2018-08-14T04:51:43.518Z,1004.74
2018-08-14T04:52:43.508Z,1004.77
2018-08-14T04:53:43.492Z,1004.76
2018-08-14T04:54:43.480Z,1004.77
2018-08-14T04:55:43.466Z,1004.76
2018-08-14T04:56:43.453Z,1004.72
2018-08-14T04:57:43.449Z,1004.74
2018-08-14T04:58:43.433Z,1004.74
2018-08-14T04:59:43.415Z,1004.78
2018-08-14T05:00:43.398Z,1004.75
2018-08-14T05:01:43.388Z,1004.79
2018-08-14T05:02:43.369Z,1004.79
2018-08-14T05:03:44.556Z,1004.81
2018-08-14T05:04:43.347Z,1004.85
2018-08-14T05:05:43.330Z,1004.87
2018-08-14T05:06:43.324Z,1004.85
2018-08-14T05:07:43.303Z,1004.86
2018-08-14T05:08:43.289Z,1004.92
2018-08-14T05:09:43.275Z,1004.94
2018-08-14T05:10:43.264Z,1004.91
2018-08-14T05:11:43.252Z,1004.91
2018-08-14T05:12:43.240Z,1005.00
2018-08-14T05:14:43.238Z,1004.95
2018-08-14T05:15:43.196Z,1004.97
2018-08-14T05:16:43.389Z,1005.02
2018-08-14T05:18:43.155Z,1005.00
2018-08-14T05:19:43.142Z,1004.99
2018-08-14T05:20:43.128Z,1005.02
2018-08-14T05:21:43.113Z,1004.97
2018-08-14T05:22:43.101Z,1004.96
2018-08-14T05:23:43.087Z,1004.97
2018-08-14T05:24:43.072Z,1004.97
2018-08-14T05:25:43.119Z,1004.98
2018-08-14T05:26:43.048Z,1005.00
2018-08-14T05:27:43.036Z,1005.00
2018-08-14T05:28:43.027Z,1004.97
2018-08-14T05:29:43.008Z,1005.07
2018-08-14T05:30:42.992Z,1005.04
2018-08-14T05:31:42.978Z,1005.03
2018-08-14T05:32:42.967Z,1005.04
2018-08-14T05:33:43.091Z,1005.06
2018-08-14T05:34:42.938Z,1005.12
2018-08-14T05:35:42.925Z,1005.17
2018-08-14T05:36:42.920Z,1005.19
2018-08-14T05:37:42.898Z,1005.20
2018-08-14T05:38:42.883Z,1005.19
2018-08-14T05:39:42.872Z,1005.25
2018-08-14T05:40:42.860Z,1005.25
2018-08-14T05:41:42.852Z,1005.23
2018-08-14T05:42:42.831Z,1005.21
2018-08-14T05:43:42.820Z,1005.20
2018-08-14T05:44:42.808Z,1005.21
2018-08-14T05:45:42.790Z,1005.25
2018-08-14T05:46:42.777Z,1005.21
2018-08-14T05:47:42.765Z,1005.27
2018-08-14T05:48:42.751Z,1005.29
2018-08-14T05:49:42.744Z,1005.27
2018-08-14T05:50:42.725Z,1005.29
2018-08-14T05:51:42.710Z,1005.31
2018-08-14T05:52:42.696Z,1005.28
2018-08-14T05:53:42.682Z,1005.29
2018-08-14T05:54:42.871Z,1005.25
2018-08-14T05:55:42.658Z,1005.30
2018-08-14T05:57:45.628Z,1005.34
2018-08-14T05:58:42.615Z,1005.31
2018-08-14T05:59:42.602Z,1005.40
2018-08-14T06:00:42.594Z,1005.30
2018-08-14T06:01:42.588Z,1005.33
2018-08-14T06:02:42.570Z,1005.40
2018-08-14T06:03:42.550Z,1005.50
2018-08-14T06:04:42.537Z,1005.47
2018-08-14T06:05:42.527Z,1005.44
2018-08-14T06:06:42.514Z,1005.33
2018-08-14T06:07:42.498Z,1005.29
2018-08-14T06:08:42.484Z,1005.35
2018-08-14T06:09:42.468Z,1005.40
2018-08-14T06:10:42.457Z,1005.46
2018-08-14T06:11:42.442Z,1005.51
2018-08-14T06:12:42.430Z,1005.48
2018-08-14T06:13:42.417Z,1005.43
2018-08-14T06:14:42.407Z,1005.45
2018-08-14T06:15:42.396Z,1005.52
2018-08-14T06:16:42.376Z,1005.50
2018-08-14T06:17:42.368Z,1005.45
2018-08-14T06:18:42.350Z,1005.53
2018-08-14T06:19:42.338Z,1005.61
2018-08-14T06:20:42.329Z,1005.59
2018-08-14T06:21:42.310Z,1005.59
2018-08-14T06:22:42.412Z,1005.48
2018-08-14T06:23:42.285Z,1005.61
2018-08-14T06:24:42.276Z,1005.45
2018-08-14T06:25:42.259Z,1005.38
2018-08-14T06:26:42.246Z,1005.58
2018-08-14T06:27:42.233Z,1005.47
2018-08-14T06:28:42.222Z,1005.50
2018-08-14T06:29:42.207Z,1005.58
2018-08-14T06:30:42.195Z,1005.51
2018-08-14T06:31:42.184Z,1005.40
2018-08-14T06:32:42.175Z,1005.42
2018-08-14T06:33:42.158Z,1005.42
2018-08-14T06:34:42.143Z,1005.63
2018-08-14T06:35:42.132Z,1005.55
2018-08-14T06:36:42.120Z,1005.50
2018-08-14T06:37:42.105Z,1005.42
2018-08-14T06:38:42.092Z,1005.54
2018-08-14T06:39:42.081Z,1005.50
2018-08-14T06:40:42.071Z,1005.55
2018-08-14T06:41:42.054Z,1005.58
2018-08-14T06:42:42.044Z,1005.66
2018-08-14T06:43:42.030Z,1005.64
2018-08-14T06:44:42.017Z,1005.63
2018-08-14T06:45:42.004Z,1005.63
2018-08-14T06:46:41.995Z,1005.69
2018-08-14T06:47:41.981Z,1005.75
2018-08-14T06:48:42.016Z,1005.77
2018-08-14T06:49:41.956Z,1005.67
2018-08-14T06:50:41.943Z,1005.80
2018-08-14T06:51:41.929Z,1005.71
2018-08-14T06:52:41.926Z,1005.78
2018-08-14T06:53:41.905Z,1005.71
2018-08-14T06:54:41.892Z,1005.76
2018-08-14T06:55:41.881Z,1005.77
2018-08-14T06:56:41.868Z,1005.93
2018-08-14T06:57:41.856Z,1005.83
2018-08-14T06:58:41.842Z,1005.91
2018-08-14T06:59:41.836Z,1005.87
2018-08-14T07:00:41.822Z,1006.02
2018-08-14T07:01:41.811Z,1005.96
2018-08-14T07:02:41.794Z,1006.11
2018-08-14T07:03:41.783Z,1005.88
2018-08-14T07:04:41.773Z,1005.99
2018-08-14T07:05:41.757Z,1006.23
2018-08-14T07:06:41.752Z,1006.08
2018-08-14T07:07:41.736Z,1006.09
2018-08-14T07:08:41.723Z,1005.99
2018-08-14T07:09:41.767Z,1005.76
2018-08-14T07:10:41.700Z,1006.06
2018-08-14T07:11:41.689Z,1005.85
2018-08-14T07:12:41.674Z,1006.08
2018-08-14T07:13:41.662Z,1006.16
2018-08-14T07:14:41.650Z,1006.08
2018-08-14T07:15:41.639Z,1006.18
2018-08-14T07:16:41.731Z,1006.31
2018-08-14T07:17:41.613Z,1006.32
2018-08-14T07:18:41.601Z,1006.14
2018-08-14T07:19:41.589Z,1006.33
2018-08-14T07:20:41.579Z,1006.25
2018-08-14T07:21:41.572Z,1006.17
2018-08-14T07:22:41.553Z,1007.03
2018-08-14T07:23:41.541Z,1011.46
2018-08-14T07:24:41.528Z,1011.44
2018-08-14T07:25:41.516Z,1016.78
2018-08-14T07:26:41.505Z,1023.38
2018-08-14T07:27:41.492Z,1008.51
2018-08-14T07:28:41.484Z,1008.58
2018-08-14T07:29:41.472Z,1023.73
2018-08-14T07:30:41.457Z,1007.91
2018-08-14T07:31:41.452Z,1014.82
2018-08-14T07:32:41.438Z,1024.72
2018-08-14T07:33:41.423Z,1025.45
2018-08-14T07:34:41.415Z,1025.00
2018-08-14T07:35:41.401Z,1009.73
2018-08-14T07:36:41.402Z,1023.64
2018-08-14T07:37:41.384Z,1025.17
2018-08-14T07:38:41.372Z,1021.61
2018-08-14T07:39:41.364Z,1006.63
2018-08-14T07:40:41.357Z,1023.64
2018-08-14T07:41:41.342Z,1020.33
2018-08-14T07:42:41.333Z,1019.54
2018-08-14T07:43:41.324Z,1013.52
2018-08-14T07:44:41.316Z,1016.78
2018-08-14T07:45:41.306Z,1017.51
2018-08-14T07:46:41.300Z,1018.67
2018-08-14T07:47:41.299Z,1006.43
2018-08-14T07:48:41.302Z,1023.18
2018-08-14T07:49:41.494Z,1023.63
2018-08-14T07:50:41.266Z,1027.01
2018-08-14T07:51:41.259Z,1027.66
2018-08-14T07:52:45.112Z,1016.30
2018-08-14T07:53:41.246Z,1010.57
2018-08-14T07:54:41.234Z,1027.72
2018-08-14T07:55:41.228Z,1007.32
2018-08-14T07:56:41.221Z,1026.01
2018-08-14T07:57:41.261Z,1007.14
2018-08-14T07:58:41.248Z,1006.85
2018-08-14T07:59:41.203Z,1024.59
2018-08-14T08:00:41.192Z,1006.48
2018-08-14T08:01:41.186Z,1008.62
2018-08-14T08:02:41.181Z,1024.83
2018-08-14T08:03:41.179Z,1006.78
2018-08-14T08:04:41.169Z,1012.65
2018-08-14T08:05:41.166Z,1006.51
2018-08-14T08:06:41.161Z,1026.46
2018-08-14T08:07:41.144Z,1025.92
2018-08-14T08:08:41.139Z,1025.82
2018-08-14T08:09:41.130Z,1023.55
2018-08-14T08:10:41.124Z,1023.78
2018-08-14T08:11:41.119Z,1023.66
2018-08-14T08:12:41.113Z,1007.44
2018-08-14T08:13:41.105Z,1006.40
2018-08-14T08:14:41.102Z,1006.05
2018-08-14T08:15:41.096Z,1010.79
2018-08-14T08:16:41.089Z,1006.95
2018-08-14T08:17:41.080Z,1006.27
2018-08-14T08:18:41.075Z,1006.16
2018-08-14T08:19:41.074Z,1006.20
2018-08-14T08:20:41.063Z,1011.15
2018-08-14T08:21:41.068Z,1006.51
2018-08-14T08:22:41.049Z,1006.34
2018-08-14T08:23:41.043Z,1010.29
2018-08-14T08:24:41.079Z,1006.92
2018-08-14T08:25:41.063Z,1006.23
2018-08-14T08:26:41.026Z,1006.34
2018-08-14T08:27:41.019Z,1006.21
2018-08-14T08:28:41.019Z,1011.70
2018-08-14T08:29:41.005Z,1006.69
2018-08-14T08:30:41.054Z,1006.41
2018-08-14T08:31:41.005Z,1008.68
2018-08-14T08:32:40.986Z,1013.59
2018-08-14T08:33:40.984Z,1007.33
2018-08-14T08:34:40.974Z,1006.41
2018-08-14T08:35:40.968Z,1006.72
2018-08-14T08:36:40.961Z,1006.38
2018-08-14T08:37:40.953Z,1006.26
2018-08-14T08:38:40.948Z,1006.29
2018-08-14T08:39:40.942Z,1006.23
2018-08-14T08:40:40.935Z,1006.28
2018-08-14T08:41:40.929Z,1009.72
2018-08-14T08:42:40.922Z,1007.08
2018-08-14T08:43:40.915Z,1006.73
2018-08-14T08:44:40.908Z,1008.47
2018-08-14T08:45:40.900Z,1008.58
2018-08-14T08:46:40.895Z,1008.24
2018-08-14T08:47:40.892Z,1007.17
2018-08-14T08:48:40.883Z,1008.17
2018-08-14T08:49:40.873Z,1007.89
2018-08-14T08:50:40.868Z,1007.91
2018-08-14T08:51:40.862Z,1007.77
2018-08-14T08:52:40.860Z,1007.67
2018-08-14T08:53:40.852Z,1006.72
2018-08-14T08:54:40.849Z,1006.54
2018-08-14T08:55:40.840Z,1006.37
2018-08-14T08:56:40.832Z,1006.33
2018-08-14T08:57:40.826Z,1006.42
2018-08-14T08:58:40.821Z,1006.59
2018-08-14T08:59:40.815Z,1006.61
2018-08-14T09:00:40.816Z,1006.52
2018-08-14T09:01:40.802Z,1006.52
2018-08-14T09:02:40.847Z,1006.57
2018-08-14T09:03:40.839Z,1006.45
2018-08-14T09:04:40.787Z,1006.30
2018-08-14T09:05:40.781Z,1006.34
2018-08-14T09:06:40.774Z,1006.64
2018-08-14T09:07:40.771Z,1006.72
2018-08-14T09:08:40.763Z,1006.72
2018-08-14T09:09:40.755Z,1006.60
2018-08-14T09:10:40.752Z,1006.78
2018-08-14T09:11:40.752Z,1006.71
2018-08-14T09:12:40.740Z,1006.63
2018-08-14T09:13:40.732Z,1006.69
2018-08-14T09:14:40.730Z,1006.69
2018-08-14T09:15:40.718Z,1006.68
2018-08-14T09:16:40.716Z,1006.76
2018-08-14T09:17:40.711Z,1006.69
2018-08-14T09:18:40.703Z,1006.64
2018-08-14T09:19:40.702Z,1006.41
2018-08-14T09:20:40.689Z,1006.30
2018-08-14T09:21:40.690Z,1006.33
2018-08-14T09:22:40.676Z,1006.38
2018-08-14T09:23:40.682Z,1006.29
2018-08-14T09:24:40.671Z,1006.37
2018-08-14T09:25:40.660Z,1006.65
2018-08-14T09:26:40.655Z,1006.66
2018-08-14T09:27:40.650Z,1006.69
2018-08-14T09:28:40.648Z,1006.71
2018-08-14T09:29:40.636Z,1006.52
2018-08-14T09:30:40.632Z,1006.69
2018-08-14T09:31:40.625Z,1006.83
2018-08-14T09:32:40.618Z,1006.69
2018-08-14T09:33:40.613Z,1006.47
2018-08-14T09:34:40.605Z,1006.49
2018-08-14T09:35:40.600Z,1006.35
2018-08-14T09:36:40.595Z,1006.35
2018-08-14T09:37:40.587Z,1006.34
2018-08-14T09:38:40.585Z,1006.40
2018-08-14T09:39:40.578Z,1006.35
2018-08-14T09:40:40.571Z,1006.44
2018-08-14T09:41:40.563Z,1006.36
2018-08-14T09:42:40.636Z,1006.36
2018-08-14T09:43:40.552Z,1006.47
2018-08-14T09:44:40.546Z,1006.41
2018-08-14T09:45:40.539Z,1006.39
2018-08-14T09:46:40.532Z,1006.35
2018-08-14T09:47:40.528Z,1006.32
2018-08-14T09:48:40.523Z,1006.26
2018-08-14T09:49:40.513Z,1006.32
2018-08-14T09:50:40.509Z,1006.34
2018-08-14T09:51:40.500Z,1006.36
2018-08-14T09:52:40.492Z,1006.38
2018-08-14T09:53:40.516Z,1006.33
2018-08-14T09:54:40.481Z,1006.41
2018-08-14T09:55:40.475Z,1006.46
2018-08-14T09:56:40.465Z,1006.45
2018-08-14T09:57:40.456Z,1006.47
2018-08-14T09:58:40.451Z,1006.56
2018-08-14T09:59:40.445Z,1006.73
2018-08-14T10:00:40.437Z,1006.66
2018-08-14T10:01:40.444Z,1006.75
2018-08-14T10:02:40.422Z,1006.73
2018-08-14T10:03:40.417Z,1006.71
2018-08-14T10:04:40.465Z,1006.64
2018-08-14T10:05:40.402Z,1006.59
2018-08-14T10:06:40.800Z,1006.55
2018-08-14T10:07:40.389Z,1006.70
2018-08-14T10:08:40.382Z,1006.82
2018-08-14T10:09:40.373Z,1006.78
2018-08-14T10:10:40.366Z,1006.70
2018-08-14T10:11:40.357Z,1006.70
2018-08-14T10:12:40.357Z,1007.13
2018-08-14T10:13:40.347Z,1006.78
2018-08-14T10:14:40.355Z,1006.73
2018-08-14T10:15:40.331Z,1006.62
2018-08-14T10:16:40.334Z,1006.46
2018-08-14T10:17:40.322Z,1006.49
2018-08-14T10:18:40.311Z,1006.42
2018-08-14T10:19:40.304Z,1006.39
2018-08-14T10:20:40.331Z,1006.33
2018-08-14T10:21:40.292Z,1006.42
2018-08-14T10:22:40.287Z,1006.51
2018-08-14T10:23:40.277Z,1006.61
2018-08-14T10:24:40.270Z,1006.83
2018-08-14T10:25:40.266Z,1006.56
2018-08-14T10:26:40.301Z,1006.58
2018-08-14T10:27:40.252Z,1006.63
2018-08-14T10:28:40.359Z,1006.57
2018-08-14T10:29:40.246Z,1006.55
2018-08-14T10:30:40.229Z,1006.62
2018-08-14T10:31:41.432Z,1006.58
2018-08-14T10:33:22.750Z,1006.54
2018-08-14T10:34:22.742Z,1006.54
2018-08-14T10:35:22.735Z,1006.64
2018-08-14T10:36:22.731Z,1006.54
2018-08-14T10:37:22.720Z,1006.57
2018-08-14T10:38:22.714Z,1006.60
2018-08-14T10:39:22.706Z,1006.56
2018-08-14T10:40:22.701Z,1006.60
2018-08-14T10:41:22.694Z,1006.58
2018-08-14T10:42:22.687Z,1006.57
2018-08-14T10:43:22.678Z,1006.58
2018-08-14T10:44:22.668Z,1006.52
2018-08-14T10:45:22.662Z,1006.55
2018-08-14T10:46:22.669Z,1006.54
2018-08-14T10:47:22.652Z,1006.55
2018-08-14T10:48:22.641Z,1006.63
2018-08-14T10:49:22.639Z,1006.60
2018-08-14T10:50:22.637Z,1006.63
2018-08-14T10:51:22.619Z,1006.61
2018-08-14T10:52:22.611Z,1006.61
2018-08-14T10:53:22.609Z,1006.66
2018-08-14T10:54:22.604Z,1006.63
2018-08-14T10:55:22.593Z,1006.56
2018-08-14T10:56:22.583Z,1006.56
2018-08-14T10:57:22.574Z,1006.54
2018-08-14T10:58:22.573Z,1006.50
2018-08-14T10:59:22.563Z,1006.52
2018-08-14T11:00:22.556Z,1006.52
2018-08-14T11:01:22.549Z,1006.46
2018-08-14T11:02:22.541Z,1006.46
2018-08-14T11:03:22.537Z,1006.43
2018-08-14T11:04:22.540Z,1006.43
2018-08-14T11:05:22.520Z,1006.42
2018-08-14T11:06:22.513Z,1006.42
2018-08-14T11:07:22.505Z,1006.38
2018-08-14T11:08:22.496Z,1006.37
2018-08-14T11:09:22.494Z,1006.40
2018-08-14T11:10:22.484Z,1006.39
2018-08-14T11:11:22.477Z,1006.42
2018-08-14T11:12:22.468Z,1006.47
2018-08-14T11:13:22.463Z,1006.46
2018-08-14T11:14:22.456Z,1006.45
2018-08-14T11:15:22.446Z,1006.43
2018-08-14T11:16:22.443Z,1006.48
2018-08-14T11:17:22.434Z,1006.50
2018-08-14T11:18:22.424Z,1006.53
2018-08-14T11:19:22.422Z,1006.49
2018-08-14T11:20:22.409Z,1006.52
2018-08-14T11:21:22.401Z,1006.58
2018-08-14T11:22:22.395Z,1006.56
2018-08-14T11:23:22.386Z,1006.58
2018-08-14T11:24:22.377Z,1006.55
2018-08-14T11:25:22.370Z,1006.57
2018-08-14T11:26:22.365Z,1006.59
2018-08-14T11:27:22.360Z,1006.52
2018-08-14T11:28:22.348Z,1006.57
2018-08-14T11:29:22.341Z,1006.62
2018-08-14T11:30:22.332Z,1006.75
2018-08-14T11:31:22.324Z,1007.08
2018-08-14T11:32:22.337Z,1007.43
2018-08-14T11:33:22.312Z,1006.98
2018-08-14T11:34:22.302Z,1006.68
2018-08-14T11:35:22.305Z,1007.04
2018-08-14T11:36:22.293Z,1007.34
2018-08-14T11:37:22.280Z,1006.77
2018-08-14T11:38:22.277Z,1006.99
2018-08-14T11:39:22.271Z,1007.09
2018-08-14T11:40:22.261Z,1007.11
2018-08-14T11:41:22.258Z,1006.98
2018-08-14T11:42:22.248Z,1006.82
2018-08-14T11:43:22.240Z,1006.76
2018-08-14T11:44:22.239Z,1006.68
2018-08-14T11:45:22.228Z,1006.77
2018-08-14T11:46:22.222Z,1006.75
2018-08-14T11:47:22.218Z,1006.78
2018-08-14T11:48:22.214Z,1006.76
2018-08-14T11:49:22.202Z,1006.78
2018-08-14T11:50:22.197Z,1006.80
2018-08-14T11:51:22.193Z,1006.80
2018-08-14T11:52:22.185Z,1006.87
2018-08-14T11:53:22.184Z,1007.05
2018-08-14T11:54:22.172Z,1007.41
2018-08-14T11:55:22.169Z,1007.15
2018-08-14T11:56:22.161Z,1006.97
2018-08-14T11:57:22.179Z,1006.89
2018-08-14T11:58:22.150Z,1006.74
2018-08-14T11:59:22.145Z,1006.72
2018-08-14T12:00:22.139Z,1006.68
2018-08-14T12:01:22.135Z,1006.73
2018-08-14T12:02:22.130Z,1006.64
2018-08-14T12:03:22.124Z,1006.66
2018-08-14T12:04:22.117Z,1006.66
2018-08-14T12:05:22.116Z,1006.62
2018-08-14T12:06:22.110Z,1006.56
2018-08-14T12:07:22.103Z,1006.57
2018-08-14T12:08:22.097Z,1006.55
2018-08-14T12:09:22.088Z,1006.56